createdAt,value
2018-03-01T01:42:28.647Z,1021.16
2018-03-01T01:42:29.217Z,1021.21
2018-03-01T01:42:29.826Z,1021.18
2018-03-01T01:42:30.416Z,1021.19
2018-03-01T01:42:31.021Z,1021.24
2018-03-01T01:42:31.629Z,1021.17
2018-03-01T01:42:32.221Z,1021.20
2018-03-01T01:42:32.814Z,1021.22
2018-03-01T01:43:26.275Z,1021.11
2018-03-01T01:43:26.872Z,1021.12
2018-03-01T01:43:27.471Z,1021.13
2018-03-01T01:43:28.076Z,1021.10
2018-03-01T01:43:28.674Z,1021.10
2018-03-01T01:43:29.270Z,1021.08
2018-03-01T01:43:29.871Z,1021.09
2018-03-01T01:43:30.477Z,1021.12
2018-03-01T01:44:25.009Z,1021.14
2018-03-01T01:44:25.554Z,1021.14
2018-03-01T01:44:26.154Z,1021.11
2018-03-01T01:44:26.746Z,1021.14
2018-03-01T01:44:27.357Z,1021.17
2018-03-01T01:44:27.942Z,1021.14
2018-03-01T01:44:28.547Z,1021.15
2018-03-01T01:44:29.144Z,1021.17
2018-03-01T01:45:23.626Z,1021.14
2018-03-01T01:45:24.226Z,1021.17
2018-03-01T01:45:24.825Z,1021.13
2018-03-01T01:45:25.420Z,1021.14
2018-03-01T01:45:26.045Z,1021.15
2018-03-01T01:45:26.618Z,1021.17
2018-03-01T01:45:27.222Z,1021.11
2018-03-01T01:45:27.823Z,1021.15
2018-03-01T01:46:21.324Z,1021.13
2018-03-01T01:46:21.878Z,1021.10
2018-03-01T01:46:22.477Z,1021.10
2018-03-01T01:46:23.076Z,1021.13
2018-03-01T01:46:23.674Z,1021.13
2018-03-01T01:46:24.283Z,1021.16
2018-03-01T01:46:24.875Z,1021.15
2018-03-01T01:46:25.473Z,1021.18
2018-03-01T01:47:19.016Z,1021.22
2018-03-01T01:47:19.538Z,1021.21
2018-03-01T01:47:20.127Z,1021.23
2018-03-01T01:47:20.724Z,1021.20
2018-03-01T01:47:21.328Z,1021.15
2018-03-01T01:47:21.934Z,1021.19
2018-03-01T01:47:22.526Z,1021.19
2018-03-01T01:47:23.126Z,1021.17
2018-03-01T01:48:16.582Z,1021.26
2018-03-01T01:48:17.182Z,1021.23
2018-03-01T01:48:17.782Z,1021.25
2018-03-01T01:48:18.376Z,1021.25
2018-03-01T01:48:18.979Z,1021.21
2018-03-01T01:48:19.575Z,1021.26
2018-03-01T01:48:20.233Z,1021.23
2018-03-01T01:48:20.820Z,1021.22
2018-03-01T01:49:14.238Z,1021.14
2018-03-01T01:49:14.844Z,1021.14
2018-03-01T01:49:15.431Z,1021.12
2018-03-01T01:49:16.032Z,1021.15
2018-03-01T01:49:16.631Z,1021.17
2018-03-01T01:49:17.240Z,1021.19
2018-03-01T01:49:17.829Z,1021.17
2018-03-01T01:49:18.434Z,1021.13
2018-03-01T01:50:11.887Z,1021.13
2018-03-01T01:50:12.484Z,1021.16
2018-03-01T01:50:13.085Z,1021.19
2018-03-01T01:50:13.685Z,1021.16
2018-03-01T01:50:14.285Z,1021.17
2018-03-01T01:50:14.890Z,1021.18
2018-03-01T01:50:15.495Z,1021.16
2018-03-01T01:50:16.078Z,1021.15
2018-03-01T01:51:10.564Z,1021.18
2018-03-01T01:51:11.160Z,1021.17
2018-03-01T01:51:11.758Z,1021.17
2018-03-01T01:51:12.369Z,1021.17
2018-03-01T01:51:12.956Z,1021.16
2018-03-01T01:51:13.563Z,1021.15
2018-03-01T01:51:14.156Z,1021.18
2018-03-01T01:51:14.757Z,1021.17
2018-03-01T01:52:09.270Z,1021.16
2018-03-01T01:52:09.835Z,1021.16
2018-03-01T01:52:10.437Z,1021.16
2018-03-01T01:52:11.040Z,1021.16
2018-03-01T01:52:11.638Z,1021.15
2018-03-01T01:52:12.231Z,1021.13
2018-03-01T01:52:12.835Z,1021.15
2018-03-01T01:52:13.433Z,1021.16
2018-03-01T01:53:07.974Z,1021.16
2018-03-01T01:53:08.512Z,1021.21
2018-03-01T01:53:09.113Z,1021.17
2018-03-01T01:53:09.712Z,1021.16
2018-03-01T01:53:10.312Z,1021.18
2018-03-01T01:53:10.909Z,1021.17
2018-03-01T01:53:11.509Z,1021.18
2018-03-01T01:53:12.107Z,1021.18
2018-03-01T01:54:05.573Z,1021.18
2018-03-01T01:54:06.167Z,1021.17
2018-03-01T01:54:06.761Z,1021.16
2018-03-01T01:54:07.364Z,1021.18
2018-03-01T01:54:07.969Z,1021.13
2018-03-01T01:54:08.559Z,1021.16
2018-03-01T01:54:09.167Z,1021.15
2018-03-01T01:54:09.763Z,1021.11
2018-03-01T01:55:03.305Z,1021.19
2018-03-01T01:55:03.816Z,1021.19
2018-03-01T01:55:04.423Z,1021.18
2018-03-01T01:55:05.012Z,1021.14
2018-03-01T01:55:05.616Z,1021.17
2018-03-01T01:55:06.216Z,1021.14
2018-03-01T01:55:06.817Z,1021.13
2018-03-01T01:55:07.409Z,1021.12
2018-03-01T01:56:00.875Z,1021.14
2018-03-01T01:56:01.467Z,1021.17
2018-03-01T01:56:02.067Z,1021.15
2018-03-01T01:56:02.666Z,1021.16
2018-03-01T01:56:03.273Z,1021.14
2018-03-01T01:56:03.864Z,1021.14
2018-03-01T01:56:04.461Z,1021.17
2018-03-01T01:56:05.067Z,1021.22
2018-03-01T01:56:59.584Z,1021.16
2018-03-01T01:57:00.141Z,1021.12
2018-03-01T01:57:00.745Z,1021.15
2018-03-01T01:57:01.342Z,1021.11
2018-03-01T01:57:01.944Z,1021.11
2018-03-01T01:57:02.544Z,1021.16
2018-03-01T01:57:03.146Z,1021.18
2018-03-01T01:57:03.742Z,1021.18
2018-03-01T01:57:57.202Z,1021.19
2018-03-01T01:57:57.799Z,1021.19
2018-03-01T01:57:58.396Z,1021.15
2018-03-01T01:57:58.997Z,1021.17
2018-03-01T01:57:59.598Z,1021.13
2018-03-01T01:58:00.195Z,1021.10
2018-03-01T01:58:00.795Z,1021.10
2018-03-01T01:58:01.391Z,1021.09
2018-03-01T01:58:54.850Z,1021.16
2018-03-01T01:58:55.448Z,1021.12
2018-03-01T01:58:56.056Z,1021.13
2018-03-01T01:58:56.649Z,1021.12
2018-03-01T01:58:57.247Z,1021.11
2018-03-01T01:58:57.849Z,1021.10
2018-03-01T01:58:58.449Z,1021.11
2018-03-01T01:58:59.046Z,1021.16
2018-03-01T01:59:53.525Z,1021.15
2018-03-01T01:59:54.121Z,1021.20
2018-03-01T01:59:54.727Z,1021.18
2018-03-01T01:59:55.324Z,1021.16
2018-03-01T01:59:55.922Z,1021.20
2018-03-01T01:59:56.522Z,1021.18
2018-03-01T01:59:57.121Z,1021.20
2018-03-01T01:59:57.721Z,1021.20
2018-03-01T02:00:52.205Z,1021.23
2018-03-01T02:00:52.798Z,1021.20
2018-03-01T02:00:53.400Z,1021.24
2018-03-01T02:00:54.001Z,1021.25
2018-03-01T02:00:54.600Z,1021.25
2018-03-01T02:00:55.208Z,1021.25
2018-03-01T02:00:55.795Z,1021.25
2018-03-01T02:00:56.393Z,1021.25
2018-03-01T02:01:49.855Z,1021.20
2018-03-01T02:01:50.457Z,1021.20
2018-03-01T02:01:51.046Z,1021.26
2018-03-01T02:01:51.649Z,1021.24
2018-03-01T02:01:52.249Z,1021.17
2018-03-01T02:01:52.857Z,1021.25
2018-03-01T02:01:53.448Z,1021.19
2018-03-01T02:01:54.052Z,1021.20
2018-03-01T02:02:47.542Z,1021.24
2018-03-01T02:02:48.100Z,1021.27
2018-03-01T02:02:48.701Z,1021.23
2018-03-01T02:02:49.301Z,1021.23
2018-03-01T02:02:49.897Z,1021.22
2018-03-01T02:02:50.500Z,1021.26
2018-03-01T02:02:51.099Z,1021.19
2018-03-01T02:02:51.695Z,1021.26
2018-03-01T02:03:46.188Z,1021.24
2018-03-01T02:03:46.773Z,1021.28
2018-03-01T02:03:47.384Z,1021.24
2018-03-01T02:03:47.981Z,1021.26
2018-03-01T02:03:48.576Z,1021.28
2018-03-01T02:03:49.184Z,1021.26
2018-03-01T02:03:49.779Z,1021.30
2018-03-01T02:03:50.373Z,1021.25
2018-03-01T02:04:44.852Z,1021.26
2018-03-01T02:04:45.457Z,1021.28
2018-03-01T02:04:46.055Z,1021.28
2018-03-01T02:04:46.652Z,1021.29
2018-03-01T02:04:47.250Z,1021.32
2018-03-01T02:04:47.854Z,1021.33
2018-03-01T02:04:48.458Z,1021.28
2018-03-01T02:04:49.049Z,1021.27
2018-03-01T02:05:43.529Z,1021.30
2018-03-01T02:05:44.131Z,1021.28
2018-03-01T02:05:44.725Z,1021.30
2018-03-01T02:05:45.326Z,1021.29
2018-03-01T02:05:45.928Z,1021.31
2018-03-01T02:05:46.535Z,1021.28
2018-03-01T02:05:47.129Z,1021.32
2018-03-01T02:05:47.726Z,1021.31
2018-03-01T02:06:41.187Z,1021.27
2018-03-01T02:06:41.776Z,1021.31
2018-03-01T02:06:42.377Z,1021.27
2018-03-01T02:06:42.978Z,1021.28
2018-03-01T02:06:43.575Z,1021.26
2018-03-01T02:06:44.177Z,1021.27
2018-03-01T02:06:44.787Z,1021.27
2018-03-01T02:06:45.374Z,1021.27
2018-03-01T02:07:38.832Z,1021.29
2018-03-01T02:07:39.437Z,1021.32
2018-03-01T02:07:40.030Z,1021.29
2018-03-01T02:07:40.630Z,1021.29
2018-03-01T02:07:41.229Z,1021.25
2018-03-01T02:07:41.837Z,1021.29
2018-03-01T02:07:42.427Z,1021.27
2018-03-01T02:07:43.029Z,1021.27
2018-03-01T02:08:37.538Z,1021.24
2018-03-01T02:08:38.114Z,1021.23
2018-03-01T02:08:38.713Z,1021.24
2018-03-01T02:08:39.305Z,1021.23
2018-03-01T02:08:39.906Z,1021.25
2018-03-01T02:08:40.508Z,1021.25
2018-03-01T02:08:41.110Z,1021.22
2018-03-01T02:08:41.701Z,1021.24
2018-03-01T02:09:36.191Z,1021.27
2018-03-01T02:09:36.782Z,1021.22
2018-03-01T02:09:37.385Z,1021.22
2018-03-01T02:09:37.990Z,1021.20
2018-03-01T02:09:38.585Z,1021.24
2018-03-01T02:09:39.183Z,1021.26
2018-03-01T02:09:39.783Z,1021.26
2018-03-01T02:09:40.383Z,1021.23
2018-03-01T02:10:33.840Z,1021.20
2018-03-01T02:10:34.432Z,1021.21
2018-03-01T02:10:35.040Z,1021.23
2018-03-01T02:10:35.636Z,1021.25
2018-03-01T02:10:36.242Z,1021.24
2018-03-01T02:10:36.833Z,1021.24
2018-03-01T02:10:37.439Z,1021.24
2018-03-01T02:10:38.031Z,1021.21
2018-03-01T02:11:32.514Z,1021.25
2018-03-01T02:11:33.113Z,1021.27
2018-03-01T02:11:33.709Z,1021.27
2018-03-01T02:11:34.313Z,1021.24
2018-03-01T02:11:34.909Z,1021.25
2018-03-01T02:11:35.513Z,1021.25
2018-03-01T02:11:36.110Z,1021.21
2018-03-01T02:11:36.714Z,1021.23
2018-03-01T02:12:30.171Z,1021.30
2018-03-01T02:12:30.767Z,1021.26
2018-03-01T02:12:31.360Z,1021.25
2018-03-01T02:12:31.967Z,1021.23
2018-03-01T02:12:32.558Z,1021.23
2018-03-01T02:12:33.161Z,1021.24
2018-03-01T02:12:33.763Z,1021.28
2018-03-01T02:12:34.368Z,1021.25
2018-03-01T02:13:28.876Z,1021.27
2018-03-01T02:13:29.435Z,1021.22
2018-03-01T02:13:30.037Z,1021.28
2018-03-01T02:13:30.642Z,1021.27
2018-03-01T02:13:31.244Z,1021.26
2018-03-01T02:13:31.834Z,1021.26
2018-03-01T02:13:32.438Z,1021.22
2018-03-01T02:13:33.032Z,1021.26
2018-03-01T02:14:27.516Z,1021.26
2018-03-01T02:14:28.113Z,1021.24
2018-03-01T02:14:28.710Z,1021.27
2018-03-01T02:14:29.313Z,1021.24
2018-03-01T02:14:29.913Z,1021.28
2018-03-01T02:14:30.521Z,1021.30
2018-03-01T02:14:31.108Z,1021.31
2018-03-01T02:14:31.711Z,1021.25
2018-03-01T02:15:26.253Z,1021.26
2018-03-01T02:15:26.785Z,1021.28
2018-03-01T02:15:27.387Z,1021.29
2018-03-01T02:15:27.993Z,1021.30
2018-03-01T02:15:28.595Z,1021.27
2018-03-01T02:15:29.185Z,1021.28
2018-03-01T02:15:29.786Z,1021.29
2018-03-01T02:15:30.393Z,1021.26
2018-03-01T02:16:23.849Z,1021.27
2018-03-01T02:16:24.442Z,1021.29
2018-03-01T02:16:25.042Z,1021.31
2018-03-01T02:16:25.641Z,1021.27
2018-03-01T02:16:26.247Z,1021.27
2018-03-01T02:16:26.846Z,1021.24
2018-03-01T02:16:27.442Z,1021.27
2018-03-01T02:16:28.041Z,1021.28
2018-03-01T02:17:22.579Z,1021.26
2018-03-01T02:17:23.122Z,1021.27
2018-03-01T02:17:23.716Z,1021.31
2018-03-01T02:17:24.320Z,1021.31
2018-03-01T02:17:24.915Z,1021.30
2018-03-01T02:17:25.516Z,1021.28
2018-03-01T02:17:26.111Z,1021.29
2018-03-01T02:17:26.717Z,1021.33
2018-03-01T02:18:32.904Z,1021.32
2018-03-01T02:18:33.463Z,1021.27
2018-03-01T02:18:34.069Z,1021.29
2018-03-01T02:18:34.674Z,1021.31
2018-03-01T02:18:35.265Z,1021.30
2018-03-01T02:18:35.865Z,1021.28
2018-03-01T02:18:36.464Z,1021.26
2018-03-01T02:18:37.063Z,1021.33
2018-03-01T02:19:32.056Z,1021.27
2018-03-01T02:19:32.654Z,1021.25
2018-03-01T02:19:33.259Z,1021.24
2018-03-01T02:19:33.855Z,1021.23
2018-03-01T02:19:34.450Z,1021.24
2018-03-01T02:19:35.056Z,1021.19
2018-03-01T02:20:32.981Z,1021.26
2018-03-01T02:20:33.582Z,1021.25
2018-03-01T02:20:34.182Z,1021.25
2018-03-01T02:21:28.690Z,1021.28
2018-03-01T02:21:29.286Z,1021.24
2018-03-01T02:21:29.890Z,1021.30
2018-03-01T02:21:30.490Z,1021.25
2018-03-01T02:21:31.084Z,1021.27
2018-03-01T02:21:31.683Z,1021.29
2018-03-01T02:21:32.283Z,1021.30
2018-03-01T02:21:32.890Z,1021.28
2018-03-01T02:22:26.853Z,1021.23
2018-03-01T02:22:27.457Z,1021.23
2018-03-01T02:22:28.058Z,1021.22
2018-03-01T02:22:28.651Z,1021.24
2018-03-01T02:22:29.251Z,1021.25
2018-03-01T02:22:29.886Z,1021.26
2018-03-01T02:22:30.456Z,1021.25
2018-03-01T02:23:29.936Z,1021.31
2018-03-01T02:23:30.528Z,1021.28
2018-03-01T02:23:31.131Z,1021.29
2018-03-01T02:23:31.733Z,1021.31
2018-03-01T02:23:32.329Z,1021.29
2018-03-01T02:23:32.930Z,1021.30
2018-03-01T02:23:33.530Z,1021.30
2018-03-01T02:23:34.128Z,1021.30
2018-03-01T02:23:34.730Z,1021.29
2018-03-01T02:23:35.328Z,1021.34
2018-03-01T02:23:35.931Z,1021.31
2018-03-01T02:23:36.528Z,1021.31
2018-03-01T02:23:37.126Z,1021.28
2018-03-01T02:23:37.727Z,1021.27
2018-03-01T02:23:38.324Z,1021.28
2018-03-01T02:23:38.929Z,1021.28
2018-03-01T02:24:53.492Z,1021.19
2018-03-01T02:24:54.003Z,1021.24
2018-03-01T02:24:54.605Z,1021.27
2018-03-01T02:24:55.210Z,1021.25
2018-03-01T02:24:55.803Z,1021.28
2018-03-01T02:24:56.401Z,1021.27
2018-03-01T02:24:57.000Z,1021.24
2018-03-01T02:24:57.600Z,1021.25
2018-03-01T02:25:52.062Z,1021.29
2018-03-01T02:25:52.664Z,1021.31
2018-03-01T02:25:53.266Z,1021.28
2018-03-01T02:25:53.870Z,1021.27
2018-03-01T02:25:54.462Z,1021.27
2018-03-01T02:25:55.058Z,1021.25
2018-03-01T02:25:55.665Z,1021.23
2018-03-01T02:25:56.265Z,1021.28
2018-03-01T02:26:50.742Z,1021.22
2018-03-01T02:26:51.338Z,1021.23
2018-03-01T02:26:51.937Z,1021.24
2018-03-01T02:26:52.534Z,1021.25
2018-03-01T02:26:53.144Z,1021.22
2018-03-01T02:26:53.742Z,1021.21
2018-03-01T02:26:54.337Z,1021.24
2018-03-01T02:26:54.941Z,1021.24
2018-03-01T02:27:48.479Z,1021.26
2018-03-01T02:27:48.991Z,1021.29
2018-03-01T02:27:49.596Z,1021.24
2018-03-01T02:27:50.190Z,1021.25
2018-03-01T02:27:50.792Z,1021.23
2018-03-01T02:27:51.385Z,1021.25
2018-03-01T02:27:52.002Z,1021.27
2018-03-01T02:27:52.586Z,1021.26
2018-03-01T02:28:47.106Z,1021.23
2018-03-01T02:28:47.666Z,1021.21
2018-03-01T02:28:48.267Z,1021.21
2018-03-01T02:28:48.863Z,1021.20
2018-03-01T02:28:49.465Z,1021.20
2018-03-01T02:28:50.066Z,1021.23
2018-03-01T02:28:50.662Z,1021.22
2018-03-01T02:28:51.264Z,1021.19
2018-03-01T02:29:44.720Z,1021.22
2018-03-01T02:29:45.318Z,1021.22
2018-03-01T02:29:45.917Z,1021.19
2018-03-01T02:29:46.515Z,1021.18
2018-03-01T02:29:47.117Z,1021.16
2018-03-01T02:29:47.716Z,1021.19
2018-03-01T02:29:48.315Z,1021.21
2018-03-01T02:29:48.917Z,1021.16
2018-03-01T02:30:42.378Z,1021.22
2018-03-01T02:30:42.978Z,1021.23
2018-03-01T02:30:43.574Z,1021.20
2018-03-01T02:30:44.165Z,1021.25
2018-03-01T02:30:44.765Z,1021.22
2018-03-01T02:30:45.368Z,1021.23
2018-03-01T02:30:45.977Z,1021.22
2018-03-01T02:30:46.567Z,1021.20
2018-03-01T02:31:41.037Z,1021.24
2018-03-01T02:31:41.633Z,1021.20
2018-03-01T02:31:42.233Z,1021.24
2018-03-01T02:31:42.833Z,1021.20
2018-03-01T02:31:43.431Z,1021.25
2018-03-01T02:31:44.038Z,1021.27
2018-03-01T02:31:44.635Z,1021.20
2018-03-01T02:31:45.231Z,1021.22
2018-03-01T02:32:39.200Z,1021.17
2018-03-01T02:32:39.800Z,1021.20
2018-03-01T02:32:40.399Z,1021.22
2018-03-01T02:32:40.996Z,1021.15
2018-03-01T02:32:41.597Z,1021.14
2018-03-01T02:32:42.200Z,1021.18
2018-03-01T02:32:42.801Z,1021.17
2018-03-01T02:33:36.239Z,1021.17
2018-03-01T02:33:36.835Z,1021.17
2018-03-01T02:33:37.436Z,1021.15
2018-03-01T02:33:38.039Z,1021.13
2018-03-01T02:33:38.635Z,1021.17
2018-03-01T02:33:39.234Z,1021.13
2018-03-01T02:33:39.834Z,1021.13
2018-03-01T02:33:40.435Z,1021.13
2018-03-01T02:34:34.979Z,1021.18
2018-03-01T02:34:35.511Z,1021.21
2018-03-01T02:34:36.110Z,1021.20
2018-03-01T02:34:36.710Z,1021.20
2018-03-01T02:34:37.308Z,1021.18
2018-03-01T02:34:37.909Z,1021.22
2018-03-01T02:34:38.510Z,1021.22
2018-03-01T02:34:39.110Z,1021.22
2018-03-01T02:35:32.567Z,1021.16
2018-03-01T02:35:33.163Z,1021.16
2018-03-01T02:35:33.763Z,1021.17
2018-03-01T02:35:34.361Z,1021.16
2018-03-01T02:35:34.961Z,1021.17
2018-03-01T02:35:35.561Z,1021.15
2018-03-01T02:35:36.162Z,1021.12
2018-03-01T02:35:36.760Z,1021.14
2018-03-01T02:36:30.225Z,1021.17
2018-03-01T02:36:30.813Z,1021.20
2018-03-01T02:36:31.412Z,1021.18
2018-03-01T02:36:32.013Z,1021.19
2018-03-01T02:36:32.613Z,1021.17
2018-03-01T02:36:33.213Z,1021.15
2018-03-01T02:36:33.814Z,1021.19
2018-03-01T02:36:34.413Z,1021.17
2018-03-01T02:37:28.892Z,1021.11
2018-03-01T02:37:29.488Z,1021.15
2018-03-01T02:37:30.091Z,1021.09
2018-03-01T02:37:30.691Z,1021.11
2018-03-01T02:37:31.291Z,1021.08
2018-03-01T02:37:31.886Z,1021.13
2018-03-01T02:37:32.485Z,1021.10
2018-03-01T02:37:33.085Z,1021.12
2018-03-01T02:38:27.568Z,1021.16
2018-03-01T02:38:28.164Z,1021.14
2018-03-01T02:38:28.763Z,1021.15
2018-03-01T02:38:29.363Z,1021.15
2018-03-01T02:38:29.965Z,1021.12
2018-03-01T02:38:30.564Z,1021.10
2018-03-01T02:38:31.161Z,1021.09
2018-03-01T02:38:31.761Z,1021.11
2018-03-01T02:56:04.331Z,1020.76
2018-03-01T02:56:04.849Z,1020.78
2018-03-01T02:56:05.446Z,1020.78
2018-03-01T02:56:06.045Z,1020.73
2018-03-01T02:56:06.646Z,1020.72
2018-03-01T02:56:07.245Z,1020.76
2018-03-01T02:56:07.845Z,1020.74
2018-03-01T02:57:01.291Z,1020.75
2018-03-01T02:57:01.886Z,1020.77
2018-03-01T02:57:02.485Z,1020.77
2018-03-01T02:57:03.086Z,1020.77
2018-03-01T02:57:03.684Z,1020.79
2018-03-01T02:57:04.285Z,1020.77
2018-03-01T02:57:04.887Z,1020.79
2018-03-01T02:57:05.485Z,1020.76
2018-03-01T02:57:58.974Z,1020.77
2018-03-01T02:57:59.538Z,1020.80
2018-03-01T02:58:00.139Z,1020.77
2018-03-01T02:58:00.737Z,1020.77
2018-03-01T02:58:01.338Z,1020.77
2018-03-01T02:58:01.938Z,1020.75
2018-03-01T02:58:02.537Z,1020.76
2018-03-01T02:58:03.137Z,1020.80
2018-03-01T02:58:56.593Z,1020.77
2018-03-01T02:58:57.191Z,1020.77
2018-03-01T02:58:57.790Z,1020.76
2018-03-01T02:58:58.389Z,1020.76
2018-03-01T02:58:59.005Z,1020.75
2018-03-01T02:58:59.591Z,1020.78
2018-03-01T02:59:00.216Z,1020.73
2018-03-01T02:59:00.787Z,1020.74
2018-03-01T02:59:54.245Z,1020.71
2018-03-01T02:59:54.842Z,1020.73
2018-03-01T02:59:55.442Z,1020.74
2018-03-01T02:59:56.042Z,1020.71
2018-03-01T02:59:56.641Z,1020.70
2018-03-01T02:59:57.244Z,1020.69
2018-03-01T02:59:57.839Z,1020.68
2018-03-01T02:59:58.442Z,1020.68
2018-03-01T03:00:51.898Z,1020.73
2018-03-01T03:00:52.493Z,1020.71
2018-03-01T03:00:53.094Z,1020.70
2018-03-01T03:00:53.694Z,1020.74
2018-03-01T03:00:54.293Z,1020.73
2018-03-01T03:00:54.893Z,1020.68
2018-03-01T03:00:55.492Z,1020.71
2018-03-01T03:00:56.090Z,1020.72
2018-03-01T03:01:49.549Z,1020.62
2018-03-01T03:01:50.150Z,1020.62
2018-03-01T03:01:50.746Z,1020.68
2018-03-01T03:01:51.345Z,1020.68
2018-03-01T03:01:51.945Z,1020.63
2018-03-01T03:01:52.545Z,1020.67
2018-03-01T03:01:53.144Z,1020.65
2018-03-01T03:01:53.745Z,1020.66
2018-03-01T03:02:48.227Z,1020.68
2018-03-01T03:02:48.821Z,1020.67
2018-03-01T03:02:49.421Z,1020.65
2018-03-01T03:02:50.025Z,1020.67
2018-03-01T03:02:50.620Z,1020.65
2018-03-01T03:02:51.220Z,1020.67
2018-03-01T03:02:51.820Z,1020.71
2018-03-01T03:02:52.420Z,1020.65
2018-03-01T03:03:45.904Z,1020.68
2018-03-01T03:03:46.475Z,1020.69
2018-03-01T03:03:47.074Z,1020.65
2018-03-01T03:03:47.674Z,1020.68
2018-03-01T03:03:48.274Z,1020.67
2018-03-01T03:03:48.872Z,1020.62
2018-03-01T03:03:49.472Z,1020.65
2018-03-01T03:03:50.073Z,1020.68
2018-03-01T03:04:43.530Z,1020.63
2018-03-01T03:04:44.126Z,1020.61
2018-03-01T03:04:44.726Z,1020.58
2018-03-01T03:04:45.325Z,1020.62
2018-03-01T03:04:45.924Z,1020.59
2018-03-01T03:04:46.524Z,1020.62
2018-03-01T03:04:47.124Z,1020.62
2018-03-01T03:04:47.723Z,1020.59
2018-03-01T03:05:41.182Z,1020.66
2018-03-01T03:05:41.778Z,1020.61
2018-03-01T03:05:42.377Z,1020.62
2018-03-01T03:05:42.978Z,1020.60
2018-03-01T03:05:43.577Z,1020.63
2018-03-01T03:05:44.176Z,1020.63
2018-03-01T03:05:44.779Z,1020.61
2018-03-01T03:05:45.377Z,1020.63
2018-03-01T03:06:39.917Z,1020.61
2018-03-01T03:06:40.453Z,1020.61
2018-03-01T03:06:41.052Z,1020.63
2018-03-01T03:06:41.652Z,1020.57
2018-03-01T03:06:42.252Z,1020.61
2018-03-01T03:06:42.851Z,1020.62
2018-03-01T03:06:43.452Z,1020.54
2018-03-01T03:06:44.050Z,1020.63
2018-03-01T03:07:38.539Z,1020.59
2018-03-01T03:07:39.128Z,1020.59
2018-03-01T03:07:39.735Z,1020.59
2018-03-01T03:07:40.327Z,1020.60
2018-03-01T03:07:40.928Z,1020.56
2018-03-01T03:07:41.535Z,1020.57
2018-03-01T03:07:42.130Z,1020.60
2018-03-01T03:07:42.725Z,1020.59
2018-03-01T03:08:36.221Z,1020.60
2018-03-01T03:08:36.781Z,1020.57
2018-03-01T03:08:37.381Z,1020.60
2018-03-01T03:08:37.983Z,1020.61
2018-03-01T03:08:38.581Z,1020.61
2018-03-01T03:08:39.180Z,1020.61
2018-03-01T03:08:39.781Z,1020.60
2018-03-01T03:08:40.380Z,1020.59
2018-03-01T03:09:33.836Z,1020.53
2018-03-01T03:09:34.433Z,1020.53
2018-03-01T03:09:35.032Z,1020.50
2018-03-01T03:09:35.632Z,1020.55
2018-03-01T03:09:36.233Z,1020.53
2018-03-01T03:09:36.831Z,1020.57
2018-03-01T03:09:37.433Z,1020.55
2018-03-01T03:09:38.038Z,1020.56
2018-03-01T03:10:31.488Z,1020.61
2018-03-01T03:10:32.085Z,1020.60
2018-03-01T03:10:32.688Z,1020.56
2018-03-01T03:10:33.284Z,1020.60
2018-03-01T03:10:33.884Z,1020.57
2018-03-01T03:10:34.484Z,1020.59
2018-03-01T03:10:35.087Z,1020.60
2018-03-01T03:10:35.682Z,1020.59
2018-03-01T03:11:29.139Z,1020.58
2018-03-01T03:11:29.737Z,1020.57
2018-03-01T03:11:30.336Z,1020.59
2018-03-01T03:11:30.936Z,1020.57
2018-03-01T03:11:31.536Z,1020.55
2018-03-01T03:11:32.134Z,1020.52
2018-03-01T03:11:32.741Z,1020.57
2018-03-01T03:11:33.334Z,1020.57
2018-03-01T03:12:26.792Z,1020.54
2018-03-01T03:12:27.388Z,1020.52
2018-03-01T03:12:27.987Z,1020.53
2018-03-01T03:12:28.587Z,1020.55
2018-03-01T03:12:29.187Z,1020.51
2018-03-01T03:12:29.787Z,1020.56
2018-03-01T03:12:30.391Z,1020.56
2018-03-01T03:12:31.034Z,1020.53
2018-03-01T03:13:25.469Z,1020.54
2018-03-01T03:13:26.064Z,1020.53
2018-03-01T03:13:26.662Z,1020.54
2018-03-01T03:13:27.262Z,1020.54
2018-03-01T03:13:27.861Z,1020.53
2018-03-01T03:13:28.462Z,1020.53
2018-03-01T03:13:29.061Z,1020.52
2018-03-01T03:13:29.661Z,1020.51
2018-03-01T03:14:23.153Z,1020.47
2018-03-01T03:14:23.716Z,1020.44
2018-03-01T03:14:24.315Z,1020.45
2018-03-01T03:14:24.915Z,1020.46
2018-03-01T03:14:25.544Z,1020.44
2018-03-01T03:14:26.114Z,1020.51
2018-03-01T03:14:26.717Z,1020.50
2018-03-01T03:14:27.313Z,1020.47
2018-03-01T03:15:21.797Z,1020.45
2018-03-01T03:15:22.391Z,1020.48
2018-03-01T03:15:23.027Z,1020.46
2018-03-01T03:15:23.592Z,1020.48
2018-03-01T03:15:24.190Z,1020.47
2018-03-01T03:15:24.789Z,1020.45
2018-03-01T03:15:25.391Z,1020.47
2018-03-01T03:15:25.989Z,1020.44
2018-03-01T03:16:20.480Z,1020.48
2018-03-01T03:16:21.066Z,1020.46
2018-03-01T03:16:21.667Z,1020.45
2018-03-01T03:16:22.266Z,1020.48
2018-03-01T03:16:22.865Z,1020.50
2018-03-01T03:16:23.464Z,1020.47
2018-03-01T03:16:24.067Z,1020.44
2018-03-01T03:16:24.664Z,1020.46
2018-03-01T03:17:18.122Z,1020.49
2018-03-01T03:17:18.719Z,1020.48
2018-03-01T03:17:19.318Z,1020.48
2018-03-01T03:17:19.918Z,1020.47
2018-03-01T03:17:20.518Z,1020.47
2018-03-01T03:17:21.118Z,1020.43
2018-03-01T03:17:21.721Z,1020.46
2018-03-01T03:17:22.316Z,1020.44
2018-03-01T03:18:16.800Z,1020.45
2018-03-01T03:18:17.393Z,1020.42
2018-03-01T03:18:17.993Z,1020.42
2018-03-01T03:18:18.593Z,1020.42
2018-03-01T03:18:19.192Z,1020.41
2018-03-01T03:18:19.791Z,1020.43
2018-03-01T03:18:20.395Z,1020.40
2018-03-01T03:18:20.995Z,1020.40
2018-03-01T03:19:15.482Z,1020.44
2018-03-01T03:19:16.069Z,1020.45
2018-03-01T03:19:16.669Z,1020.44
2018-03-01T03:19:17.267Z,1020.46
2018-03-01T03:19:17.868Z,1020.43
2018-03-01T03:19:18.467Z,1020.43
2018-03-01T03:19:19.067Z,1020.43
2018-03-01T03:19:19.667Z,1020.46
2018-03-01T03:20:14.174Z,1020.40
2018-03-01T03:20:14.745Z,1020.43
2018-03-01T03:20:15.347Z,1020.41
2018-03-01T03:20:15.944Z,1020.44
2018-03-01T03:20:16.546Z,1020.40
2018-03-01T03:20:17.144Z,1020.38
2018-03-01T03:20:17.747Z,1020.40
2018-03-01T03:20:18.342Z,1020.42
2018-03-01T03:21:12.826Z,1020.41
2018-03-01T03:21:13.421Z,1020.40
2018-03-01T03:21:14.021Z,1020.43
2018-03-01T03:21:14.619Z,1020.41
2018-03-01T03:21:15.219Z,1020.46
2018-03-01T03:21:15.819Z,1020.41
2018-03-01T03:21:16.420Z,1020.44
2018-03-01T03:21:17.017Z,1020.42
2018-03-01T03:22:11.501Z,1020.46
2018-03-01T03:22:12.096Z,1020.44
2018-03-01T03:22:12.696Z,1020.41
2018-03-01T03:22:13.295Z,1020.42
2018-03-01T03:22:13.895Z,1020.42
2018-03-01T03:22:14.496Z,1020.39
2018-03-01T03:22:15.097Z,1020.41
2018-03-01T03:22:15.694Z,1020.42
2018-03-01T03:23:09.151Z,1020.36
2018-03-01T03:23:09.747Z,1020.38
2018-03-01T03:23:10.348Z,1020.36
2018-03-01T03:23:10.948Z,1020.35
2018-03-01T03:23:11.553Z,1020.37
2018-03-01T03:23:12.147Z,1020.36
2018-03-01T03:23:12.749Z,1020.38
2018-03-01T03:23:13.346Z,1020.37
2018-03-01T03:24:06.804Z,1020.33
2018-03-01T03:24:07.401Z,1020.35
2018-03-01T03:24:08.000Z,1020.37
2018-03-01T03:24:08.600Z,1020.34
2018-03-01T03:24:09.200Z,1020.38
2018-03-01T03:24:09.798Z,1020.35
2018-03-01T03:24:10.400Z,1020.34
2018-03-01T03:24:10.998Z,1020.35
2018-03-01T03:25:05.512Z,1020.33
2018-03-01T03:25:06.076Z,1020.36
2018-03-01T03:25:06.674Z,1020.32
2018-03-01T03:25:07.274Z,1020.32
2018-03-01T03:25:07.873Z,1020.33
2018-03-01T03:25:08.475Z,1020.31
2018-03-01T03:25:09.075Z,1020.33
2018-03-01T03:25:09.686Z,1020.36
2018-03-01T03:26:03.130Z,1020.38
2018-03-01T03:26:03.728Z,1020.33
2018-03-01T03:26:04.327Z,1020.31
2018-03-01T03:26:04.927Z,1020.29
2018-03-01T03:26:05.528Z,1020.29
2018-03-01T03:26:06.128Z,1020.30
2018-03-01T03:26:06.732Z,1020.30
2018-03-01T03:26:07.325Z,1020.33
2018-03-01T03:27:00.782Z,1020.26
2018-03-01T03:27:01.379Z,1020.30
2018-03-01T03:27:01.979Z,1020.27
2018-03-01T03:27:02.579Z,1020.29
2018-03-01T03:27:03.196Z,1020.26
2018-03-01T03:27:03.777Z,1020.30
2018-03-01T03:27:04.377Z,1020.31
2018-03-01T03:27:04.981Z,1020.32